createdAt,value
2018-11-11T00:00:25.840Z,998.96
2018-11-11T00:01:34.481Z,998.97
2018-11-11T00:02:43.130Z,998.92
2018-11-11T00:03:51.763Z,998.98
2018-11-11T00:05:00.406Z,999.03
2018-11-11T00:06:09.044Z,999.05
2018-11-11T00:07:17.953Z,999.05
2018-11-11T00:08:26.594Z,999.09
2018-11-11T00:09:35.243Z,999.07
2018-11-11T00:10:43.880Z,999.08
2018-11-11T00:11:52.523Z,999.09
2018-11-11T00:13:01.164Z,999.08
2018-11-11T00:14:09.811Z,999.01
2018-11-11T00:15:18.475Z,999.01
2018-11-11T00:16:27.096Z,999.04
2018-11-11T00:17:35.737Z,999.03
2018-11-11T00:18:44.382Z,998.97
2018-11-11T00:19:53.293Z,998.91
2018-11-11T00:21:01.928Z,998.9
2018-11-11T00:22:10.566Z,998.88
2018-11-11T00:23:19.205Z,998.89
2018-11-11T00:24:27.855Z,998.85
2018-11-11T00:25:36.500Z,998.91
2018-11-11T00:26:45.144Z,998.89
2018-11-11T00:27:54.043Z,998.93
2018-11-11T00:29:02.698Z,998.85
2018-11-11T00:30:11.336Z,998.85
2018-11-11T00:31:20.249Z,998.92
2018-11-11T00:32:28.879Z,998.93
2018-11-11T00:33:37.531Z,998.95
2018-11-11T00:34:46.170Z,998.92
2018-11-11T00:35:54.815Z,998.94
2018-11-11T00:37:03.447Z,998.97
2018-11-11T00:38:12.096Z,998.97
2018-11-11T00:39:20.774Z,999
2018-11-11T00:40:29.383Z,998.97
2018-11-11T00:41:38.028Z,998.97
2018-11-11T00:42:46.664Z,998.94
2018-11-11T00:43:55.315Z,998.93
2018-11-11T00:45:03.956Z,998.92
2018-11-11T00:46:12.611Z,998.93
2018-11-11T00:47:21.243Z,998.9
2018-11-11T00:48:29.891Z,998.92
2018-11-11T00:49:38.791Z,998.87
2018-11-11T00:50:47.443Z,998.89
2018-11-11T00:51:56.079Z,998.87
2018-11-11T00:53:04.721Z,998.88
2018-11-11T00:54:13.360Z,998.82
2018-11-11T00:55:22.007Z,998.85
2018-11-11T00:56:30.645Z,998.83
2018-11-11T00:57:39.285Z,998.85
2018-11-11T00:58:47.927Z,998.87
2018-11-11T00:59:56.566Z,998.9
2018-11-11T01:01:05.759Z,998.89
2018-11-11T01:02:14.395Z,998.88
2018-11-11T01:03:23.043Z,998.83
2018-11-11T01:04:31.674Z,998.81
2018-11-11T01:05:40.323Z,998.82
2018-11-11T01:06:48.959Z,998.79
2018-11-11T01:07:57.605Z,998.77
2018-11-11T01:09:06.512Z,998.8
2018-11-11T01:10:15.430Z,998.84
2018-11-11T01:11:24.070Z,998.84
2018-11-11T01:12:32.714Z,998.8
2018-11-11T01:13:41.352Z,998.77
2018-11-11T01:14:49.990Z,998.74
2018-11-11T01:15:58.633Z,998.76
2018-11-11T01:17:07.277Z,998.71
2018-11-11T01:18:15.921Z,998.72
2018-11-11T01:19:24.550Z,998.69
2018-11-11T01:20:33.192Z,998.68
2018-11-11T01:21:41.834Z,998.66
2018-11-11T01:22:50.748Z,998.67
2018-11-11T01:23:59.647Z,998.72
2018-11-11T01:25:08.307Z,998.74
2018-11-11T01:26:16.943Z,998.77
2018-11-11T01:27:25.586Z,998.78
2018-11-11T01:28:34.222Z,998.77
2018-11-11T01:29:43.130Z,998.78
2018-11-11T01:30:52.036Z,998.86
2018-11-11T01:32:00.675Z,998.89
2018-11-11T01:33:09.317Z,998.87
2018-11-11T01:34:17.959Z,998.9
2018-11-11T01:35:26.863Z,998.92
2018-11-11T01:36:35.505Z,998.91
2018-11-11T01:37:44.411Z,998.89
2018-11-11T01:38:53.313Z,998.87
2018-11-11T01:40:02.223Z,998.87
2018-11-11T01:41:11.122Z,998.95
2018-11-11T01:42:19.766Z,998.91
2018-11-11T01:43:28.673Z,998.91
2018-11-11T01:44:37.315Z,998.95
2018-11-11T01:45:45.954Z,999.01
2018-11-11T01:46:54.603Z,999.03
2018-11-11T01:48:03.241Z,999.09
2018-11-11T01:49:11.884Z,999.07
2018-11-11T01:50:20.520Z,999.06
2018-11-11T01:51:29.163Z,999.02
2018-11-11T01:52:37.804Z,999.01
2018-11-11T01:53:46.445Z,999.07
2018-11-11T01:54:55.089Z,999.02
2018-11-11T01:56:03.725Z,999
2018-11-11T01:57:12.366Z,999.01
2018-11-11T01:58:21.010Z,999
2018-11-11T01:59:29.654Z,999.02
2018-11-11T02:00:38.291Z,999.03
2018-11-11T02:01:46.929Z,999.07
2018-11-11T02:02:55.570Z,999.09
2018-11-11T02:04:04.487Z,999.08
2018-11-11T02:05:13.120Z,999.05
2018-11-11T02:06:22.031Z,999.06
2018-11-11T02:07:30.667Z,999.1
2018-11-11T02:08:39.312Z,999.08
2018-11-11T02:09:47.964Z,999.09
2018-11-11T02:10:56.590Z,999.09
2018-11-11T02:12:05.230Z,999.15
2018-11-11T02:13:13.873Z,999.09
2018-11-11T02:14:22.516Z,999.11
2018-11-11T02:15:31.160Z,999.1
2018-11-11T02:16:39.803Z,999.09
2018-11-11T02:17:48.440Z,999.08
2018-11-11T02:18:57.088Z,999.06
2018-11-11T02:20:05.723Z,999.03
2018-11-11T02:21:14.440Z,999.05
2018-11-11T02:22:23.003Z,999
2018-11-11T02:23:31.655Z,998.96
2018-11-11T02:24:40.295Z,998.93
2018-11-11T02:25:48.937Z,998.95
2018-11-11T02:26:57.569Z,998.89
2018-11-11T02:28:06.212Z,998.91
2018-11-11T02:29:14.860Z,998.86
2018-11-11T02:30:23.503Z,998.87
2018-11-11T02:31:32.430Z,998.86
2018-11-11T02:32:41.328Z,998.87
2018-11-11T02:33:50.795Z,998.89
2018-11-11T02:34:59.429Z,998.86
2018-11-11T02:36:08.346Z,998.84
2018-11-11T02:37:16.996Z,998.81
2018-11-11T02:38:25.624Z,998.75
2018-11-11T02:39:34.265Z,998.82
2018-11-11T02:40:42.915Z,998.76
2018-11-11T02:41:51.808Z,998.76
2018-11-11T02:43:00.450Z,998.78
2018-11-11T02:44:09.093Z,998.82
2018-11-11T02:45:18.550Z,998.82
2018-11-11T02:46:27.454Z,998.83
2018-11-11T02:47:36.091Z,998.82
2018-11-11T02:48:45.056Z,998.85
2018-11-11T02:49:53.635Z,998.86
2018-11-11T02:51:02.551Z,998.84
2018-11-11T02:52:11.190Z,998.82
2018-11-11T02:53:20.113Z,998.88
2018-11-11T02:54:28.997Z,998.91
2018-11-11T02:55:37.656Z,998.86
2018-11-11T02:56:46.292Z,998.85
2018-11-11T02:57:55.465Z,998.85
2018-11-11T02:59:04.099Z,998.85
2018-11-11T03:00:12.756Z,998.85
2018-11-11T03:01:21.661Z,998.82
2018-11-11T03:02:30.303Z,998.8
2018-11-11T03:03:38.937Z,998.78
2018-11-11T03:04:47.853Z,998.83
2018-11-11T03:05:56.498Z,998.82
2018-11-11T03:07:05.142Z,998.86
2018-11-11T03:08:14.052Z,998.85
2018-11-11T03:09:22.686Z,998.9
2018-11-11T03:10:31.336Z,998.88
2018-11-11T03:11:40.232Z,998.86
2018-11-11T03:12:48.884Z,998.87
2018-11-11T03:13:57.515Z,998.83
2018-11-11T03:15:06.423Z,998.83
2018-11-11T03:16:15.060Z,998.79
2018-11-11T03:17:23.702Z,998.81
2018-11-11T03:18:32.354Z,998.8
2018-11-11T03:19:40.992Z,998.82
2018-11-11T03:20:49.915Z,998.82
2018-11-11T03:21:58.815Z,998.78
2018-11-11T03:23:07.465Z,998.78
2018-11-11T03:24:16.629Z,998.79
2018-11-11T03:25:25.546Z,998.79
2018-11-11T03:26:34.488Z,998.78
2018-11-11T03:27:43.122Z,998.79
2018-11-11T03:28:51.767Z,998.8
2018-11-11T03:30:00.674Z,998.78
2018-11-11T03:31:09.596Z,998.81
2018-11-11T03:32:18.235Z,998.82
2018-11-11T03:33:26.885Z,998.84
2018-11-11T03:34:35.555Z,998.86
2018-11-11T03:35:44.174Z,998.81
2018-11-11T03:36:52.810Z,998.8
2018-11-11T03:38:01.717Z,998.82
2018-11-11T03:39:10.650Z,998.81
2018-11-11T03:40:19.317Z,998.76
2018-11-11T03:41:28.211Z,998.81
2018-11-11T03:42:36.856Z,998.85
2018-11-11T03:43:45.766Z,998.81
2018-11-11T03:44:54.994Z,998.81
2018-11-11T03:46:03.583Z,998.8
2018-11-11T03:47:12.274Z,998.83
2018-11-11T03:48:20.873Z,998.79
2018-11-11T03:49:29.505Z,998.82
2018-11-11T03:50:38.159Z,998.86
2018-11-11T03:51:46.794Z,998.86
2018-11-11T03:52:55.442Z,998.92
2018-11-11T03:54:04.339Z,998.97
2018-11-11T03:55:13.256Z,998.96
2018-11-11T03:56:21.897Z,998.96
2018-11-11T03:57:30.540Z,998.91
2018-11-11T03:58:39.438Z,998.93
2018-11-11T03:59:48.536Z,998.91
2018-11-11T04:00:57.186Z,998.89
2018-11-11T04:02:06.098Z,998.94
2018-11-11T04:03:14.745Z,998.98
2018-11-11T04:04:23.637Z,998.97
2018-11-11T04:05:32.555Z,998.95
2018-11-11T04:06:41.188Z,998.92
2018-11-11T04:07:50.103Z,998.93
2018-11-11T04:08:58.736Z,998.94
2018-11-11T04:10:07.651Z,998.86
2018-11-11T04:11:16.283Z,998.84
2018-11-11T04:12:24.932Z,998.84
2018-11-11T04:13:33.562Z,998.87
2018-11-11T04:14:42.467Z,998.84
2018-11-11T04:15:51.109Z,998.87
2018-11-11T04:16:59.754Z,998.83
2018-11-11T04:18:08.393Z,998.82
2018-11-11T04:19:17.072Z,998.86
2018-11-11T04:20:25.685Z,998.88
2018-11-11T04:21:34.323Z,998.89
2018-11-11T04:22:43.251Z,998.88
2018-11-11T04:23:52.172Z,998.9
2018-11-11T04:25:01.074Z,998.93
2018-11-11T04:26:09.719Z,998.92
2018-11-11T04:27:18.362Z,998.89
2018-11-11T04:28:27.001Z,998.92
2018-11-11T04:29:35.646Z,998.89
2018-11-11T04:30:44.281Z,998.92
2018-11-11T04:31:52.934Z,998.88
2018-11-11T04:33:01.574Z,998.98
2018-11-11T04:34:10.215Z,998.98
2018-11-11T04:35:18.851Z,999.01
2018-11-11T04:36:27.504Z,998.99
2018-11-11T04:37:36.410Z,999.03
2018-11-11T04:38:45.059Z,999.04
2018-11-11T04:39:53.709Z,999.04
2018-11-11T04:41:02.344Z,999
2018-11-11T04:42:10.992Z,999
2018-11-11T04:43:19.638Z,998.99
2018-11-11T04:44:28.289Z,998.99
2018-11-11T04:45:36.929Z,998.93
2018-11-11T04:46:45.569Z,998.88
2018-11-11T04:47:54.228Z,998.88
2018-11-11T04:49:02.872Z,998.83
2018-11-11T04:50:11.509Z,998.84
2018-11-11T04:51:20.416Z,998.78
2018-11-11T04:52:29.326Z,998.81
2018-11-11T04:53:37.977Z,998.83
2018-11-11T04:54:46.617Z,998.83
2018-11-11T04:55:55.258Z,998.82
2018-11-11T04:57:04.173Z,998.83
2018-11-11T04:58:13.076Z,998.83
2018-11-11T04:59:21.721Z,998.83
2018-11-11T05:00:30.369Z,998.88
2018-11-11T05:01:39.131Z,998.91
2018-11-11T05:02:47.660Z,998.94
2018-11-11T05:03:56.303Z,998.94
2018-11-11T05:05:05.216Z,998.91
2018-11-11T05:06:13.860Z,999
2018-11-11T05:07:22.499Z,998.99
2018-11-11T05:08:31.419Z,999
2018-11-11T05:09:40.058Z,999.01
2018-11-11T05:10:48.705Z,998.99
2018-11-11T05:11:57.610Z,999.05
2018-11-11T05:13:06.258Z,999.04
2018-11-11T05:14:15.173Z,999.07
2018-11-11T05:15:23.813Z,999.08
2018-11-11T05:16:32.456Z,999.05
2018-11-11T05:17:41.380Z,998.99
2018-11-11T05:18:50.013Z,998.99
2018-11-11T05:19:58.922Z,999.03
2018-11-11T05:21:07.562Z,999.04
2018-11-11T05:22:16.211Z,999.07
2018-11-11T05:23:24.847Z,999.02
2018-11-11T05:24:33.493Z,999.02
2018-11-11T05:25:42.123Z,999
2018-11-11T05:26:50.775Z,999
2018-11-11T05:27:59.678Z,999
2018-11-11T05:29:08.589Z,998.99
2018-11-11T05:30:17.488Z,999
2018-11-11T05:31:26.398Z,999.01
2018-11-11T05:32:35.044Z,999.07
2018-11-11T05:33:43.953Z,999.08
2018-11-11T05:34:52.597Z,999.12
2018-11-11T05:36:01.487Z,999.09
2018-11-11T05:37:10.136Z,999.1
2018-11-11T05:38:18.767Z,999.12
2018-11-11T05:39:27.416Z,999.12
2018-11-11T05:40:36.045Z,999.13
2018-11-11T05:41:44.693Z,999.16
2018-11-11T05:42:53.329Z,999.18
2018-11-11T05:44:01.982Z,999.15
2018-11-11T05:45:10.617Z,999.18
2018-11-11T05:46:19.529Z,999.16
2018-11-11T05:47:28.162Z,999.15
2018-11-11T05:48:36.811Z,999.2
2018-11-11T05:49:45.461Z,999.2
2018-11-11T05:50:54.357Z,999.22
2018-11-11T05:52:02.993Z,999.24
2018-11-11T05:53:11.900Z,999.26
2018-11-11T05:54:20.548Z,999.25
2018-11-11T05:55:29.186Z,999.29
2018-11-11T05:56:37.836Z,999.24
2018-11-11T05:57:46.469Z,999.26
2018-11-11T05:58:55.385Z,999.24
2018-11-11T06:00:04.023Z,999.28
2018-11-11T06:01:12.669Z,999.32
2018-11-11T06:02:21.301Z,999.28
2018-11-11T06:03:29.951Z,999.23
2018-11-11T06:04:38.591Z,999.24
2018-11-11T06:05:47.488Z,999.21
2018-11-11T06:06:56.125Z,999.26
2018-11-11T06:08:04.770Z,999.26
2018-11-11T06:09:13.676Z,999.26
2018-11-11T06:10:22.319Z,999.26
2018-11-11T06:11:30.961Z,999.25
2018-11-11T06:12:39.593Z,999.27
2018-11-11T06:13:48.237Z,999.26
2018-11-11T06:14:57.411Z,999.32
2018-11-11T06:16:06.057Z,999.3
2018-11-11T06:17:14.693Z,999.28
2018-11-11T06:18:23.336Z,999.32
2018-11-11T06:19:32.028Z,999.3
2018-11-11T06:20:40.620Z,999.34
2018-11-11T06:21:49.259Z,999.39
2018-11-11T06:22:58.164Z,999.37
2018-11-11T06:24:06.803Z,999.36
2018-11-11T06:25:15.470Z,999.31
2018-11-11T06:26:24.085Z,999.34
2018-11-11T06:27:32.741Z,999.31
2018-11-11T06:28:41.718Z,999.3
2018-11-11T06:29:50.357Z,999.36
2018-11-11T06:30:59.003Z,999.37
2018-11-11T06:32:07.906Z,999.4
2018-11-11T06:33:16.553Z,999.37
2018-11-11T06:34:25.188Z,999.37
2018-11-11T06:35:33.834Z,999.39
2018-11-11T06:36:42.475Z,999.38
2018-11-11T06:37:51.377Z,999.38
2018-11-11T06:39:00.277Z,999.37
2018-11-11T06:40:09.188Z,999.41
2018-11-11T06:41:17.827Z,999.41
2018-11-11T06:42:26.744Z,999.45
2018-11-11T06:43:35.380Z,999.48
2018-11-11T06:44:44.025Z,999.49
2018-11-11T06:45:53.191Z,999.43
2018-11-11T06:47:01.838Z,999.37
2018-11-11T06:48:10.606Z,999.39
2018-11-11T06:49:19.115Z,999.45
2018-11-11T06:50:27.763Z,999.4
2018-11-11T06:51:36.399Z,999.41
2018-11-11T06:52:45.046Z,999.4
2018-11-11T06:53:53.947Z,999.43
2018-11-11T06:55:02.589Z,999.45
2018-11-11T06:56:11.231Z,999.46
2018-11-11T06:57:19.875Z,999.52
2018-11-11T06:58:28.511Z,999.52
2018-11-11T06:59:37.416Z,999.5
2018-11-11T07:00:46.061Z,999.5
2018-11-11T07:01:54.712Z,999.53
2018-11-11T07:03:03.351Z,999.49
2018-11-11T07:04:12.259Z,999.52
2018-11-11T07:05:20.901Z,999.53
2018-11-11T07:06:29.537Z,999.55
2018-11-11T07:07:38.506Z,999.56
2018-11-11T07:08:47.087Z,999.59
2018-11-11T07:09:55.997Z,999.57
2018-11-11T07:11:04.634Z,999.59
2018-11-11T07:12:13.278Z,999.59
2018-11-11T07:13:21.950Z,999.61
2018-11-11T07:14:30.825Z,999.6
2018-11-11T07:15:39.471Z,999.56
2018-11-11T07:16:48.108Z,999.56
2018-11-11T07:17:57.026Z,999.56
2018-11-11T07:19:05.664Z,999.61
2018-11-11T07:20:14.309Z,999.6
2018-11-11T07:21:22.958Z,999.65
2018-11-11T07:22:31.601Z,999.65
2018-11-11T07:23:40.552Z,999.64
2018-11-11T07:24:49.667Z,999.61
2018-11-11T07:25:58.314Z,999.62
2018-11-11T07:27:06.961Z,999.63
2018-11-11T07:28:15.600Z,999.67
2018-11-11T07:29:24.241Z,999.68
2018-11-11T07:30:33.155Z,999.7
2018-11-11T07:31:41.803Z,999.71
2018-11-11T07:32:50.440Z,999.68
2018-11-11T07:33:59.338Z,999.68
2018-11-11T07:35:07.988Z,999.7
2018-11-11T07:36:16.628Z,999.7
2018-11-11T07:37:25.541Z,999.71
2018-11-11T07:38:34.177Z,999.76
2018-11-11T07:39:42.815Z,999.77
2018-11-11T07:40:51.459Z,999.73
2018-11-11T07:42:00.102Z,999.8
2018-11-11T07:43:08.745Z,999.77
2018-11-11T07:44:17.387Z,999.8
2018-11-11T07:45:26.025Z,999.82
2018-11-11T07:46:34.928Z,999.86
2018-11-11T07:47:43.643Z,999.85
2018-11-11T07:48:52.916Z,999.9
2018-11-11T07:50:01.834Z,999.89
2018-11-11T07:51:10.477Z,999.85
2018-11-11T07:52:19.122Z,999.96
2018-11-11T07:53:27.759Z,999.93
2018-11-11T07:54:36.905Z,999.95
2018-11-11T07:55:45.546Z,1000.01
2018-11-11T07:56:54.192Z,1000.03
2018-11-11T07:58:03.100Z,1000.01
2018-11-11T07:59:11.740Z,1000.03
2018-11-11T08:00:20.648Z,1000.02
2018-11-11T08:01:29.373Z,1000.01
2018-11-11T08:02:37.937Z,999.95
2018-11-11T08:03:46.580Z,999.99
2018-11-11T08:04:55.221Z,999.98
2018-11-11T08:06:03.860Z,1000.01
2018-11-11T08:07:12.509Z,1000.02
2018-11-11T08:08:21.150Z,999.99
2018-11-11T08:09:29.791Z,1000.02
2018-11-11T08:10:38.426Z,1000.01
2018-11-11T08:11:47.073Z,1000.04
2018-11-11T08:12:55.721Z,1000.1
2018-11-11T08:14:05.163Z,1000.09
2018-11-11T08:15:14.062Z,1000.09
2018-11-11T08:16:22.708Z,1000.14
2018-11-11T08:17:31.352Z,1000.17
2018-11-11T08:18:40.261Z,1000.15
2018-11-11T08:19:49.170Z,1000.18
2018-11-11T08:20:57.799Z,1000.23
2018-11-11T08:22:06.446Z,1000.21
2018-11-11T08:23:15.082Z,1000.22
2018-11-11T08:24:23.733Z,1000.23
2018-11-11T08:25:32.399Z,1000.22
2018-11-11T08:26:41.364Z,1000.22
2018-11-11T08:27:50.267Z,1000.19
2018-11-11T08:28:59.217Z,1000.26
2018-11-11T08:30:07.852Z,1000.22
2018-11-11T08:31:16.756Z,1000.21
2018-11-11T08:32:25.670Z,1000.27
2018-11-11T08:33:34.320Z,1000.21
2018-11-11T08:34:43.217Z,1000.27
2018-11-11T08:35:51.859Z,1000.26
2018-11-11T08:37:00.500Z,1000.37
2018-11-11T08:38:09.406Z,1000.36
2018-11-11T08:39:18.053Z,1000.31
2018-11-11T08:40:26.976Z,1000.26
2018-11-11T08:41:35.599Z,1000.32
2018-11-11T08:42:44.500Z,1000.38
2018-11-11T08:43:53.145Z,1000.39
2018-11-11T08:45:01.781Z,1000.35
2018-11-11T08:46:10.429Z,1000.42
2018-11-11T08:47:19.059Z,1000.37
2018-11-11T08:48:27.711Z,1000.48
2018-11-11T08:49:36.350Z,1000.47
2018-11-11T08:50:44.995Z,1000.52
2018-11-11T08:51:53.629Z,1000.55
2018-11-11T08:53:02.274Z,1000.53
2018-11-11T08:54:10.922Z,1000.49
2018-11-11T08:55:19.567Z,1000.49
2018-11-11T08:56:28.213Z,1000.47
2018-11-11T08:57:36.848Z,1000.5
2018-11-11T08:58:45.769Z,1000.55
2018-11-11T08:59:54.675Z,1000.59
2018-11-11T09:01:03.597Z,1000.6
2018-11-11T09:02:12.505Z,1000.59
2018-11-11T09:03:21.420Z,1000.58
2018-11-11T09:04:30.055Z,1000.52
2018-11-11T09:05:38.707Z,1000.57
2018-11-11T09:06:47.611Z,1000.59
2018-11-11T09:07:56.255Z,1000.58
2018-11-11T09:09:05.441Z,1000.6
2018-11-11T09:10:14.086Z,1000.62
2018-11-11T09:11:22.777Z,1000.7
2018-11-11T09:12:31.708Z,1000.62
2018-11-11T09:13:40.355Z,1000.67
2018-11-11T09:14:48.995Z,1000.8
2018-11-11T09:15:57.641Z,1000.73
2018-11-11T09:17:06.284Z,1000.78
2018-11-11T09:18:15.254Z,1000.77
2018-11-11T09:19:23.894Z,1000.76
2018-11-11T09:20:32.800Z,1000.77
2018-11-11T09:21:41.450Z,1000.79
2018-11-11T09:22:50.089Z,1000.82
2018-11-11T09:23:58.726Z,1000.81
2018-11-11T09:25:07.641Z,1000.79
2018-11-11T09:26:16.292Z,1000.82
2018-11-11T09:27:25.210Z,1000.78
2018-11-11T09:28:33.847Z,1000.84
2018-11-11T09:29:42.592Z,1000.86
2018-11-11T09:30:51.145Z,1000.88
2018-11-11T09:31:59.788Z,1000.85
2018-11-11T09:33:08.702Z,1000.91
2018-11-11T09:34:17.341Z,1000.92
2018-11-11T09:35:26.147Z,1000.93
2018-11-11T09:36:34.624Z,1000.98
2018-11-11T09:37:43.540Z,1000.97
2018-11-11T09:38:52.212Z,1001
2018-11-11T09:40:01.168Z,1000.94
2018-11-11T09:41:09.806Z,1000.97
2018-11-11T09:42:18.489Z,1000.91
2018-11-11T09:43:27.808Z,1000.92
2018-11-11T09:44:36.452Z,1000.93
2018-11-11T09:45:45.094Z,1000.98
2018-11-11T09:46:53.740Z,1000.87
2018-11-11T09:48:02.860Z,1000.92
2018-11-11T09:49:11.303Z,1000.91
2018-11-11T09:50:19.942Z,1000.93
2018-11-11T09:51:28.586Z,1000.97
2018-11-11T09:52:37.272Z,1000.97
2018-11-11T09:53:46.225Z,1001.06
2018-11-11T09:54:55.158Z,1001.02
2018-11-11T09:56:03.796Z,1001.04
2018-11-11T09:57:12.443Z,1001.13
2018-11-11T09:58:21.350Z,1001.05
2018-11-11T09:59:29.993Z,1001.08
2018-11-11T10:00:38.630Z,1001.08
2018-11-11T10:01:47.286Z,1001.07
2018-11-11T10:02:55.919Z,1001.07
2018-11-11T10:04:04.563Z,1001.05
2018-11-11T10:05:13.200Z,1001.03
2018-11-11T10:06:21.932Z,1001.07
2018-11-11T10:07:30.868Z,1001.06
2018-11-11T10:08:39.517Z,1001.01
2018-11-11T10:09:48.424Z,1000.9
2018-11-11T10:10:57.059Z,1000.94
2018-11-11T10:12:05.711Z,1000.86
2018-11-11T10:13:14.351Z,1000.9
2018-11-11T10:14:23.003Z,1000.91
2018-11-11T10:15:31.648Z,1000.92
2018-11-11T10:16:40.305Z,1000.86
2018-11-11T10:17:49.207Z,1000.86
2018-11-11T10:18:57.859Z,1000.93
2018-11-11T10:20:06.822Z,1000.91
2018-11-11T10:21:15.409Z,1000.97
2018-11-11T10:22:24.048Z,1001.01
2018-11-11T10:23:32.702Z,1000.98
2018-11-11T10:24:41.344Z,1000.99
2018-11-11T10:25:49.985Z,1001.01
2018-11-11T10:26:58.627Z,1001
2018-11-11T10:28:07.267Z,1001.02
2018-11-11T10:29:15.983Z,1001.03
2018-11-11T10:30:24.563Z,1000.96
2018-11-11T10:31:33.473Z,1001.06
2018-11-11T10:32:42.106Z,1001.02
2018-11-11T10:33:51.030Z,1001.01
2018-11-11T10:34:59.670Z,1001.07
2018-11-11T10:36:08.325Z,1001.05
2018-11-11T10:37:17.004Z,1001.08
2018-11-11T10:38:25.611Z,1001.05
2018-11-11T10:39:34.255Z,1001.07
2018-11-11T10:40:42.900Z,1001.13
2018-11-11T10:41:51.541Z,1001.03
2018-11-11T10:43:00.195Z,1001.1
2018-11-11T10:44:08.840Z,1000.97
2018-11-11T10:45:17.482Z,1000.99
2018-11-11T10:46:26.131Z,1000.98
2018-11-11T10:47:34.772Z,1001
2018-11-11T10:48:43.420Z,1000.98
2018-11-11T10:49:52.057Z,1000.98
2018-11-11T10:51:00.970Z,1001
2018-11-11T10:52:09.604Z,1000.98
2018-11-11T10:53:18.252Z,1000.97
2018-11-11T10:54:26.938Z,1000.92
2018-11-11T10:55:36.005Z,1000.89
2018-11-11T10:56:44.634Z,1000.88
2018-11-11T10:57:53.280Z,1000.89
2018-11-11T10:59:01.926Z,1000.96
2018-11-11T11:00:10.929Z,1000.95
2018-11-11T11:01:19.811Z,1000.97
2018-11-11T11:02:28.456Z,1000.98
2018-11-11T11:03:37.098Z,1000.99
2018-11-11T11:04:45.744Z,1000.94
2018-11-11T11:05:54.455Z,1000.96
2018-11-11T11:07:03.455Z,1000.96
2018-11-11T11:08:12.089Z,1000.96
2018-11-11T11:09:20.740Z,1000.96
2018-11-11T11:10:29.374Z,1000.99
2018-11-11T11:11:38.023Z,1001.02
2018-11-11T11:12:46.663Z,1001.12
2018-11-11T11:13:55.402Z,1001.14
2018-11-11T11:15:04.809Z,1001.13
2018-11-11T11:16:13.457Z,1001.19
2018-11-11T11:17:22.094Z,1001.22
2018-11-11T11:18:30.745Z,1001.22
2018-11-11T11:19:39.385Z,1001.2
2018-11-11T11:20:48.022Z,1001.26
2018-11-11T11:21:56.665Z,1001.3
2018-11-11T11:23:05.463Z,1001.34
2018-11-11T11:24:14.410Z,1001.43
2018-11-11T11:25:23.354Z,1001.46
2018-11-11T11:26:31.972Z,1001.5
2018-11-11T11:27:40.608Z,1001.58
2018-11-11T11:28:49.529Z,1001.58
2018-11-11T11:29:58.171Z,1001.56
2018-11-11T11:31:07.089Z,1001.52
2018-11-11T11:32:15.877Z,1001.65
2018-11-11T11:33:24.380Z,1001.63
2018-11-11T11:34:33.020Z,1001.62
2018-11-11T11:35:42.003Z,1001.58
2018-11-11T11:36:50.567Z,1001.67
2018-11-11T11:37:59.229Z,1001.71
2018-11-11T11:39:08.144Z,1001.72
2018-11-11T11:40:16.792Z,1001.73
2018-11-11T11:41:25.533Z,1001.7
2018-11-11T11:42:34.456Z,1001.68
2018-11-11T11:43:43.106Z,1001.65
2018-11-11T11:44:52.026Z,1001.68
2018-11-11T11:46:00.678Z,1001.71
2018-11-11T11:47:09.365Z,1001.69
2018-11-11T11:48:17.959Z,1001.7
2018-11-11T11:49:26.597Z,1001.72
2018-11-11T11:50:35.354Z,1001.63
2018-11-11T11:51:43.893Z,1001.63
2018-11-11T11:52:52.860Z,1001.66
2018-11-11T11:54:01.481Z,1001.76
2018-11-11T11:55:10.132Z,1001.79
2018-11-11T11:56:18.772Z,1001.84
2018-11-11T11:57:27.935Z,1001.79
2018-11-11T11:58:36.577Z,1001.79
2018-11-11T11:59:45.217Z,1001.87
2018-11-11T12:00:53.870Z,1001.86
2018-11-11T12:02:02.572Z,1001.84
2018-11-11T12:03:11.157Z,1001.82
2018-11-11T12:04:19.791Z,1001.82
2018-11-11T12:05:28.441Z,1001.84
2018-11-11T12:06:37.086Z,1001.81
2018-11-11T12:07:45.729Z,1001.8
2018-11-11T12:08:54.381Z,1001.84
2018-11-11T12:10:03.021Z,1001.79
2018-11-11T12:11:11.662Z,1001.79
2018-11-11T12:12:20.305Z,1001.8
2018-11-11T12:13:28.945Z,1001.74
2018-11-11T12:14:37.591Z,1001.75
2018-11-11T12:15:46.240Z,1001.67
2018-11-11T12:16:54.934Z,1001.72
2018-11-11T12:18:03.882Z,1001.7
2018-11-11T12:19:12.522Z,1001.71
2018-11-11T12:20:21.167Z,1001.7
2018-11-11T12:21:29.811Z,1001.71
2018-11-11T12:22:38.460Z,1001.69
2018-11-11T12:23:47.100Z,1001.71
2018-11-11T12:24:55.745Z,1001.75
2018-11-11T12:26:04.668Z,1001.8
2018-11-11T12:27:13.316Z,1001.84
2018-11-11T12:28:21.956Z,1001.79
2018-11-11T12:29:30.611Z,1001.88
2018-11-11T12:30:39.298Z,1001.84
2018-11-11T12:31:48.888Z,1001.87
2018-11-11T12:32:57.528Z,1001.83
2018-11-11T12:34:06.173Z,1001.81
2018-11-11T12:35:15.095Z,1001.82
2018-11-11T12:36:23.736Z,1001.8
2018-11-11T12:37:32.653Z,1001.75
2018-11-11T12:38:41.296Z,1001.73
2018-11-11T12:39:50.157Z,1001.79
2018-11-11T12:40:59.121Z,1001.74
2018-11-11T12:42:08.045Z,1001.75
2018-11-11T12:43:16.722Z,1001.75
2018-11-11T12:44:25.331Z,1001.75
2018-11-11T12:45:33.970Z,1001.8
2018-11-11T12:46:42.683Z,1001.82
2018-11-11T12:47:51.594Z,1001.79
2018-11-11T12:49:00.271Z,1001.8
2018-11-11T12:50:08.897Z,1001.77
2018-11-11T12:51:17.527Z,1001.68
2018-11-11T12:52:26.171Z,1001.68
2018-11-11T12:53:34.817Z,1001.68
2018-11-11T12:54:43.493Z,1001.65
2018-11-11T12:55:52.110Z,1001.66
2018-11-11T12:57:00.757Z,1001.64
2018-11-11T12:58:09.402Z,1001.65
2018-11-11T12:59:18.053Z,1001.76
2018-11-11T13:00:26.960Z,1001.87
2018-11-11T13:01:35.606Z,1001.87
2018-11-11T13:02:44.245Z,1001.93
2018-11-11T13:03:52.893Z,1001.94
2018-11-11T13:05:01.535Z,1002.08
2018-11-11T13:06:10.181Z,1002.04
2018-11-11T13:07:18.829Z,1001.89
2018-11-11T13:08:27.478Z,1001.8
2018-11-11T13:09:36.122Z,1001.72
2018-11-11T13:10:44.769Z,1001.7
2018-11-11T13:11:53.432Z,1001.72
2018-11-11T13:13:02.386Z,1001.71
2018-11-11T13:14:11.034Z,1001.8
2018-11-11T13:15:19.682Z,1001.72
2018-11-11T13:16:28.323Z,1001.64
2018-11-11T13:17:36.962Z,1001.62
2018-11-11T13:18:45.613Z,1001.69
2018-11-11T13:19:54.284Z,1001.77
2018-11-11T13:21:02.919Z,1001.78
2018-11-11T13:22:11.702Z,1001.74
2018-11-11T13:23:20.193Z,1001.73
2018-11-11T13:24:28.842Z,1001.69
2018-11-11T13:25:37.491Z,1001.74
2018-11-11T13:26:46.126Z,1001.79
2018-11-11T13:27:54.772Z,1001.71
2018-11-11T13:29:03.956Z,1001.79
2018-11-11T13:30:12.603Z,1001.79
2018-11-11T13:31:21.249Z,1001.8
2018-11-11T13:32:29.888Z,1001.8
2018-11-11T13:33:38.543Z,1001.85
2018-11-11T13:34:47.179Z,1001.83
2018-11-11T13:35:55.831Z,1001.85
2018-11-11T13:37:04.472Z,1001.88
2018-11-11T13:38:13.155Z,1001.9
2018-11-11T13:39:22.465Z,1001.87
2018-11-11T13:40:31.125Z,1001.88
2018-11-11T13:41:39.765Z,1001.89
2018-11-11T13:42:48.410Z,1001.91
2018-11-11T13:43:57.318Z,1001.93
2018-11-11T13:45:06.029Z,1001.95
2018-11-11T13:46:15.030Z,1001.91
2018-11-11T13:47:23.527Z,1001.96
2018-11-11T13:48:32.172Z,1001.94
2018-11-11T13:49:40.818Z,1001.99
2018-11-11T13:50:49.461Z,1002
2018-11-11T13:51:58.107Z,1002.08
2018-11-11T13:53:06.749Z,1002.05
2018-11-11T13:54:15.390Z,1002.08
2018-11-11T13:55:24.038Z,1002.1
2018-11-11T13:56:32.683Z,1002.1
2018-11-11T13:57:41.324Z,1002.09
2018-11-11T13:58:50.231Z,1002.11
2018-11-11T13:59:58.881Z,1002.15
2018-11-11T14:01:07.528Z,1002.16
2018-11-11T14:02:16.169Z,1002.24
2018-11-11T14:03:25.072Z,1002.32
2018-11-11T14:04:33.718Z,1002.29
2018-11-11T14:05:42.367Z,1002.31
2018-11-11T14:06:51.012Z,1002.32
2018-11-11T14:07:59.714Z,1002.26
2018-11-11T14:09:08.292Z,1002.19